Ezra, Illinois
Current Conditions -  °F | °C
As of 9:52 AM on Friday 24 Oct 2014 (Local Time) from KMWA Reporting Station
Broken Clouds Broken Clouds  
Wind Chill: 59°   Ceiling: 1700
Heat Index: 59°   Visibility: 15mi
Dew Point: 52°   Wind: 6mph
Humidity: 77%   Direction: 240°WSW
Pressure: 30.13"   Gusts: NA
Location:  37.9074°N, 88.9501°W
Report Text: KMWA 241452Z 24005KT 15SM BKN017 15/11 A3013
Loading
Personal Weather Stations






























Interactive Weather Map
Tropical Storm Tracking
New forecast layout! Learn more

10-Day Weather Forecast

Advertisements
Track Severe Weather on mobile